METAR ET TAF INFORMATION
METAR FOR LFLB
ADDS - METARS form results

(2313 UTC 17 September 2019)
Data provider http://aviationweather.gov/metar/data/
 
METAR text: LFLB 172300Z AUTO 18004KT CAVOK 14/11 Q1016
Conditions at: LFLB (CHAMBERY/AIX BAI, FR) observed 2300 UTC 17 September 2019
Temperature: 14.0°C (57°F)
Dewpoint: 11.0°C (52°F) [RH = 82%]
Pressure (altimeter): 30.00 inches Hg (1016.0 mb)
Winds: from the S (180 degrees) at 5 MPH (4 knots; 2.1 m/s)
Visibility: 6 or more miles (10+ km)
Ceiling: ceiling and visibility are OK
Clouds: unknown
Weather: no significant weather observed at this time

METAR text: LFLB 172230Z AUTO VRB03KT CAVOK 15/11 Q1016
Conditions at: LFLB (CHAMBERY/AIX BAI, FR) observed 2230 UTC 17 September 2019
Temperature: 15.0°C (59°F)
Dewpoint: 11.0°C (52°F) [RH = 77%]
Pressure (altimeter): 30.00 inches Hg (1016.0 mb)
Winds: variable direction winds at 3 MPH (3 knots; 1.5 m/s)
Visibility: 6 or more miles (10+ km)
Ceiling: ceiling and visibility are OK
Clouds: unknown
Weather: no significant weather observed at this time

 AÉROPORT DE AÉROPORT

 INFORMATIONS DE PISTE
Piste 18 Longueur de la piste 6628 ft Largeur de la piste 148 ft
Élévation de la piste 769 ft Seuil de la piste déplacés 755 ft Runway heading 176
Piste 36 Longueur de la piste 6628 ft Largeur de la piste 148 ft
Élévation de la piste 778 ft Seuil de la piste déplacés 460 ft Runway heading 356

 AÉROPORT FRÉQUENCES
Type APP Nom CHAMBERY A Féquence 123.7 MHZ
Type ATIS Nom CHAMBERY A Féquence 124.575 MHZ
Type TWR Nom CHAMBERY T Féquence 118.3 MHZ

 SIDA DE NAVIGATION



Powered by Virtual Airlines Manager [v2.6.2]